Time;durP1;ratioP1;P1;durP2;ratioP2;P2;SDS_P1;SDS_P2;PMS_P1;PMS_P2;Temp;Humidity;BMP_temperature;BMP_pressure;BME280_temperature;BME280_humidity;BME280_pressure;Samples;Min_cycle;Max_cycle;Signal;HPM_P1;HPM_P2
2023/04/13 00:04:59;;;;;;;27.00;16.80;;;;;;;5.01;75.51;97456.80;436924;1253;99221;-39
2023/04/13 00:15:06;;;;;;;28.30;18.20;;;;;;;4.88;75.77;97448.39;436797;1252;111207;-40
2023/04/13 00:25:14;;;;;;;28.30;17.70;;;;;;;4.79;75.89;97447.11;436441;1253;107550;-41
2023/04/13 00:45:29;;;;;;;48.40;27.10;;;;;;;4.36;76.27;97439.52;436957;1248;108502;-41
2023/04/13 00:55:38;;;;;;;30.70;20.70;;;;;;;4.26;76.50;97439.00;436804;1253;99218;-40
2023/04/13 01:05:49;;;;;;;28.50;18.10;;;;;;;4.24;76.93;97440.24;436509;1261;110731;-40
2023/04/13 01:26:08;;;;;;;34.10;21.50;;;;;;;4.26;77.14;97441.14;438277;1246;97905;-41
2023/04/13 01:36:16;;;;;;;34.70;21.00;;;;;;;4.16;77.18;97440.22;437652;1250;107856;-40
2023/04/13 01:46:29;;;;;;;53.30;27.20;;;;;;;3.97;77.47;97438.94;437584;1251;99234;-40
2023/04/13 02:06:43;;;;;;;28.90;17.70;;;;;;;3.80;78.37;97426.46;437447;1246;107356;-40
2023/04/13 02:16:50;;;;;;;25.80;16.70;;;;;;;3.90;78.65;97426.61;437345;1250;98485;-41
2023/04/13 02:26:58;;;;;;;26.30;16.70;;;;;;;3.97;78.62;97430.59;437634;1248;108355;-41
2023/04/13 02:47:12;;;;;;;46.40;23.90;;;;;;;3.92;79.26;97421.73;437307;1250;111870;-41
2023/04/13 02:57:19;;;;;;;35.10;20.90;;;;;;;3.82;79.59;97407.21;437277;1250;107342;-41
2023/04/13 03:07:26;;;;;;;33.40;19.70;;;;;;;3.84;79.77;97411.14;437370;1252;99253;-41
2023/04/13 03:17:33;;;;;;;36.90;23.00;;;;;;;3.89;79.97;97420.74;437392;1250;108179;-40
2023/04/13 03:27:40;;;;;;;50.30;28.10;;;;;;;3.91;80.13;97420.77;437482;1247;98819;-40
2023/04/13 03:37:47;;;;;;;40.30;24.60;;;;;;;3.88;80.58;97415.77;437461;1246;112911;-40
2023/04/13 03:47:54;;;;;;;28.80;19.00;;;;;;;3.98;80.86;97413.12;437017;1251;359725;-41
2023/04/13 03:58:02;;;;;;;26.90;18.50;;;;;;;4.18;80.91;97403.42;437644;1258;99304;-43
2023/04/13 04:08:09;;;;;;;27.90;18.40;;;;;;;4.36;81.03;97394.15;437358;1250;108616;-41
2023/04/13 04:18:16;;;;;;;42.10;25.30;;;;;;;4.50;81.04;97404.02;437308;1250;98830;-41
2023/04/13 04:28:23;;;;;;;53.10;30.90;;;;;;;4.57;81.20;97420.27;437340;1250;111778;-40
2023/04/13 04:38:31;;;;;;;34.90;21.70;;;;;;;4.66;81.24;97424.22;437337;1250;108806;-42
2023/04/13 04:48:38;;;;;;;30.20;17.10;;;;;;;4.89;81.07;97422.99;437379;1250;99240;-41
2023/04/13 05:08:52;;;;;;;37.00;22.10;;;;;;;5.76;80.98;97420.49;437163;1250;99215;-43
2023/04/13 05:18:59;;;;;;;34.10;22.90;;;;;;;6.43;80.86;97419.39;437161;1250;110764;-40
2023/04/13 05:29:08;;;;;;;36.80;21.10;;;;;;;7.36;80.33;97418.38;437226;1250;108867;-41
2023/04/13 05:49:22;;;;;;;38.40;23.80;;;;;;;8.31;78.52;97423.99;437473;1250;107967;-41
2023/04/13 05:59:29;;;;;;;43.10;24.00;;;;;;;8.69;77.76;97427.73;437319;1247;99205;-41
2023/04/13 06:09:37;;;;;;;35.70;19.70;;;;;;;9.09;76.77;97425.89;437257;1251;112175;-41
2023/04/13 06:19:44;;;;;;;36.90;19.70;;;;;;;10.49;75.79;97429.92;437216;1250;108160;-42
2023/04/13 06:29:52;;;;;;;38.20;20.90;;;;;;;10.92;73.04;97439.78;437211;1247;99259;-41
2023/04/13 06:39:58;;;;;;;32.80;19.20;;;;;;;10.50;71.58;97445.39;437226;1250;108530;-41
2023/04/13 07:00:14;;;;;;;31.20;17.80;;;;;;;10.34;69.78;97442.20;437395;1250;113296;-41
2023/04/13 07:20:43;;;;;;;23.40;14.30;;;;;;;11.13;67.48;97433.31;437222;1248;97915;-42
2023/04/13 07:30:50;;;;;;;22.00;11.80;;;;;;;11.77;65.63;97441.33;437226;1250;107772;-42
2023/04/13 07:40:57;;;;;;;23.50;11.60;;;;;;;12.00;63.82;97443.75;437390;1248;99253;-40
2023/04/13 07:51:03;;;;;;;25.00;11.60;;;;;;;12.32;62.72;97443.37;437346;1247;111959;-47
2023/04/13 08:11:18;;;;;;;18.00;9.30;;;;;;;13.15;59.95;97442.06;437451;1250;99414;-42
2023/04/13 08:21:25;;;;;;;16.60;8.80;;;;;;;13.82;60.24;97432.38;437432;1250;108955;-44
2023/04/13 08:31:32;;;;;;;8.10;5.40;;;;;;;14.50;58.09;97431.58;437202;1250;99234;-40
2023/04/13 08:41:44;;;;;;;10.20;5.60;;;;;;;15.20;57.88;97431.89;437083;1250;113714;-40
2023/04/13 08:51:51;;;;;;;9.30;5.60;;;;;;;16.03;57.55;97436.41;437375;1247;108136;-40
2023/04/13 09:12:05;;;;;;;;;;;;;;;15.98;55.66;97427.20;437355;1250;107559;-42
2023/04/13 09:22:16;;;;;;;17.60;6.00;;;;;;;16.37;54.23;97426.61;437237;1250;99211;-40
2023/04/13 09:42:28;;;;;;;9.20;5.60;;;;;;;16.08;51.01;97435.84;437172;1247;108150;-41
2023/04/13 09:52:35;;;;;;;10.90;5.90;;;;;;;16.13;50.71;97435.70;437356;1246;98839;-40
2023/04/13 10:02:43;;;;;;;12.70;6.50;;;;;;;16.12;50.69;97445.00;437294;1247;108685;-41
2023/04/13 10:12:52;;;;;;;13.40;6.10;;;;;;;16.45;51.79;97443.96;437375;1250;99246;-42
2023/04/13 10:23:00;;;;;;;7.30;5.00;;;;;;;16.89;51.83;97440.23;437583;1247;112852;-42
2023/04/13 10:43:31;;;;;;;18.10;3.80;;;;;;;16.13;51.96;97435.85;437398;1251;99214;-41
2023/04/13 10:53:39;;;;;;;10.20;4.80;;;;;;;16.25;50.86;97438.80;436996;1251;107989;-42
2023/04/13 11:03:46;;;;;;;10.90;5.30;;;;;;;16.65;50.40;97432.06;437136;1247;99285;-41
2023/04/13 11:14:16;;;;;;;12.10;6.00;;;;;;;16.95;50.10;97431.39;437137;1251;111877;-44
2023/04/13 11:34:38;;;;;;;10.10;6.10;;;;;;;17.38;48.45;97435.14;437172;1253;99266;-42
2023/04/13 11:44:45;;;;;;;12.50;5.50;;;;;;;17.28;49.46;97435.91;437214;1247;108513;-43
2023/04/13 11:54:52;;;;;;;9.60;6.30;;;;;;;17.02;49.43;97442.56;437135;1247;99326;-41
2023/04/13 12:15:08;;;;;;;9.90;5.80;;;;;;;16.61;49.86;97431.07;437269;1247;107663;-42
2023/04/13 12:25:33;;;;;;;9.00;6.30;;;;;;;16.39;48.09;97431.25;437173;1251;99263;-41
2023/04/13 12:35:42;;;;;;;14.10;6.50;;;;;;;16.32;48.87;97427.77;437293;1252;108422;-41
2023/04/13 12:55:54;;;;;;;14.10;7.10;;;;;;;16.32;50.04;97421.79;437400;1251;111448;-42
2023/04/13 13:06:01;;;;;;;14.00;8.00;;;;;;;16.19;50.55;97434.20;437164;1252;108603;-41
2023/04/13 13:16:08;;;;;;;14.10;7.70;;;;;;;15.98;50.51;97437.65;437256;1247;99090;-41
2023/04/13 13:26:14;;;;;;;15.60;9.10;;;;;;;15.69;51.12;97442.15;437197;1261;107838;-42
2023/04/13 13:36:25;;;;;;;11.40;7.00;;;;;;;15.45;51.47;97439.61;437278;1253;98071;-41
2023/04/13 13:46:32;;;;;;;12.40;6.20;;;;;;;15.19;51.81;97437.75;437484;1247;111654;-43
2023/04/13 13:56:39;;;;;;;16.50;7.10;;;;;;;15.07;52.01;97443.04;437367;1254;108720;-41
2023/04/13 14:06:46;;;;;;;12.90;7.60;;;;;;;15.11;52.38;97444.95;437319;1251;98495;-41
2023/04/13 14:16:55;;;;;;;11.00;6.80;;;;;;;14.99;52.57;97454.33;437351;1252;108763;-42
2023/04/13 14:27:03;;;;;;;10.40;6.90;;;;;;;14.47;52.99;97458.13;437296;1247;99371;-42
2023/04/13 14:47:16;;;;;;;12.60;6.40;;;;;;;14.06;54.56;97467.20;437352;1252;109238;-41
2023/04/13 14:57:24;;;;;;;10.00;6.70;;;;;;;14.07;55.10;97478.19;437510;1252;99214;-41
2023/04/13 15:07:31;;;;;;;18.00;7.50;;;;;;;14.06;55.45;97486.17;437248;1248;107270;-41
2023/04/13 15:17:38;;;;;;;17.50;9.20;;;;;;;13.89;55.83;97496.20;437189;1247;99217;-41
2023/04/13 15:27:48;;;;;;;22.50;12.90;;;;;;;13.71;56.58;97505.59;437384;1248;110413;-41
2023/04/13 15:37:55;;;;;;;22.80;16.80;;;;;;;13.44;57.63;97518.95;437270;1254;108558;-49
2023/04/13 15:48:03;;;;;;;23.40;16.10;;;;;;;13.09;58.88;97524.52;437054;1251;367294;-42
2023/04/13 15:58:13;;;;;;;54.10;16.30;;;;;;;12.84;59.91;97532.95;437393;1253;108890;-41
2023/04/13 16:08:19;;;;;;;23.00;14.60;;;;;;;12.72;60.73;97538.11;437306;1252;97982;-41
2023/04/13 16:28:35;;;;;;;32.70;19.40;;;;;;;12.27;62.63;97568.16;437327;1248;108250;-41
2023/04/13 16:38:43;;;;;;;40.20;22.60;;;;;;;11.83;63.59;97577.29;437378;1253;99250;-42
2023/04/13 16:48:50;;;;;;;42.10;27.00;;;;;;;11.33;64.67;97589.12;437381;1251;108669;-41
2023/04/13 16:58:57;;;;;;;33.10;22.80;;;;;;;11.02;65.90;97600.80;437349;1254;99249;-41
2023/04/13 17:09:06;;;;;;;37.00;25.80;;;;;;;10.82;67.11;97614.38;437460;1253;110072;-40
2023/04/13 17:19:14;;;;;;;32.10;22.90;;;;;;;10.70;67.51;97632.66;437448;1248;108151;-41
2023/04/13 17:29:21;;;;;;;58.40;36.10;;;;;;;10.47;68.42;97647.98;437326;1261;99207;-41
2023/04/13 17:39:27;;;;;;;43.20;29.70;;;;;;;10.34;69.05;97661.66;437263;1253;106719;-41
2023/04/13 17:49:34;;;;;;;49.80;33.10;;;;;;;10.18;69.75;97668.48;437293;1254;99311;-41
2023/04/13 17:59:41;;;;;;;54.50;36.90;;;;;;;10.05;70.38;97680.61;437193;1254;111897;-42
2023/04/13 18:09:49;;;;;;;40.70;26.60;;;;;;;9.96;71.08;97691.02;437361;1254;107112;-40
2023/04/13 18:19:56;;;;;;;45.70;30.90;;;;;;;9.85;71.71;97703.67;437352;1261;99897;-40
2023/04/13 18:30:02;;;;;;;39.80;27.10;;;;;;;9.80;72.44;97726.45;437277;1252;108204;-41
2023/04/13 18:40:11;;;;;;;42.30;29.40;;;;;;;9.75;73.06;97731.45;437331;1261;99212;-40
2023/04/13 18:50:18;;;;;;;55.50;33.60;;;;;;;9.78;73.44;97736.02;437431;1253;112221;-41
2023/04/13 19:00:24;;;;;;;50.30;32.80;;;;;;;9.77;74.02;97738.34;437185;1252;109350;-41
2023/04/13 19:30:43;;;;;;;57.70;37.10;;;;;;;9.80;74.68;97749.30;437268;1257;99215;-41
2023/04/13 19:40:50;;;;;;;100.20;57.50;;;;;;;9.78;75.04;97754.45;437270;1252;112719;-42
2023/04/13 19:50:57;;;;;;;72.10;45.20;;;;;;;9.75;75.30;97752.46;437231;1261;107933;-41
2023/04/13 20:01:06;;;;;;;41.40;30.70;;;;;;;9.71;75.48;97753.09;437249;1253;99231;-42
2023/04/13 20:11:13;;;;;;;52.00;37.50;;;;;;;9.65;75.69;97741.98;437238;1251;106792;-40
2023/04/13 20:21:22;;;;;;;48.00;34.80;;;;;;;9.56;76.17;97734.86;437311;1251;98827;-41
2023/04/13 20:31:30;;;;;;;48.60;35.50;;;;;;;9.54;76.41;97730.65;437427;1247;111542;-41
2023/04/13 20:41:37;;;;;;;44.60;33.30;;;;;;;9.52;76.72;97729.32;437266;1261;107980;-41
2023/04/13 20:51:45;;;;;;;49.10;32.50;;;;;;;9.49;76.89;97729.66;437431;1251;99243;-41
2023/04/13 21:01:53;;;;;;;46.60;34.00;;;;;;;9.44;77.14;97735.05;437369;1251;108324;-41
2023/04/13 21:12:01;;;;;;;50.10;35.30;;;;;;;9.42;77.58;97737.19;437469;1253;98806;-40
2023/04/13 21:22:08;;;;;;;48.20;32.90;;;;;;;9.41;77.81;97739.40;437308;1251;111196;-41
2023/04/13 21:32:15;;;;;;;55.20;35.50;;;;;;;9.45;78.03;97747.49;437270;1247;109243;-41
2023/04/13 21:42:23;;;;;;;59.30;36.30;;;;;;;9.50;78.16;97736.00;437344;1248;99241;-41
2023/04/13 21:52:29;;;;;;;58.70;39.60;;;;;;;9.44;78.51;97729.09;437393;1253;107501;-42
2023/04/13 22:02:35;;;;;;;55.30;36.40;;;;;;;9.26;78.56;97726.97;437336;1247;99227;-41
2023/04/13 22:12:43;;;;;;;43.70;30.00;;;;;;;9.14;78.61;97716.52;437316;1248;112982;-40
2023/04/13 22:22:50;;;;;;;43.60;30.50;;;;;;;9.02;78.56;97710.16;437212;1247;107369;-41
2023/04/13 22:32:57;;;;;;;45.80;33.20;;;;;;;8.97;79.13;97714.36;437405;1251;98817;-40
2023/04/13 22:43:03;;;;;;;44.20;31.40;;;;;;;9.03;79.28;97714.14;437401;1247;107820;-41
2023/04/13 22:53:10;;;;;;;47.80;31.90;;;;;;;9.02;79.38;97713.76;437284;1251;99241;-41
2023/04/13 23:03:16;;;;;;;45.00;31.90;;;;;;;9.02;79.64;97709.58;437383;1252;112008;-40
2023/04/13 23:13:23;;;;;;;43.00;29.10;;;;;;;9.04;79.60;97697.16;437265;1247;108168;-39
2023/04/13 23:23:30;;;;;;;37.20;26.50;;;;;;;8.97;79.82;97686.45;437454;1252;99234;-42
2023/04/13 23:33:37;;;;;;;32.10;23.00;;;;;;;8.93;79.85;97674.84;437167;1248;107666;-41
2023/04/13 23:43:45;;;;;;;39.90;25.90;;;;;;;8.93;80.12;97676.53;437163;1251;98005;-43
2023/04/13 23:53:52;;;;;;;38.60;26.60;;;;;;;8.92;80.28;97669.79;437282;1251;111997;-41
